createdAt,value
2023-03-11T00:02:42.921Z,19.98
2023-03-11T00:07:45.746Z,20.50
2023-03-11T00:12:48.396Z,21.75
2023-03-11T00:17:51.468Z,21.98
2023-03-11T00:22:55.028Z,22.13
2023-03-11T00:27:58.599Z,22.08
2023-03-11T00:33:01.414Z,21.55
2023-03-11T00:38:06.572Z,19.90
2023-03-11T00:43:09.246Z,20.92
2023-03-11T00:48:13.516Z,18.95
2023-03-11T00:53:16.259Z,20.63
2023-03-11T00:58:19.227Z,20.17
2023-03-11T01:03:26.185Z,20.73
2023-03-11T01:08:29.828Z,21.50
2023-03-11T01:13:33.624Z,21.85
2023-03-11T01:18:36.160Z,23.50
2023-03-11T01:23:40.554Z,22.85
2023-03-11T01:28:43.453Z,21.27
2023-03-11T01:33:46.050Z,20.98
2023-03-11T01:38:48.772Z,21.88
2023-03-11T01:43:55.210Z,23.50
2023-03-11T01:49:04.219Z,22.52
2023-03-11T01:54:21.180Z,20.63
2023-03-11T01:59:29.800Z,19.75
2023-03-11T02:04:35.881Z,22.10
2023-03-11T02:09:39.307Z,20.38
2023-03-11T02:14:46.368Z,20.17
2023-03-11T02:25:40.674Z,21.08
2023-03-11T02:30:45.002Z,19.83
2023-03-11T02:35:48.064Z,21.02
2023-03-11T02:40:55.795Z,22.20
2023-03-11T02:46:00.735Z,21.23
2023-03-11T02:51:04.132Z,19.45
2023-03-11T02:56:07.174Z,19.08
2023-03-11T03:01:10.802Z,17.50
2023-03-11T03:06:16.077Z,17.15
2023-03-11T03:11:18.955Z,17.42
2023-03-11T03:16:22.039Z,18.80
2023-03-11T03:21:24.675Z,18.75
2023-03-11T03:26:28.440Z,18.83
2023-03-11T03:31:32.674Z,20.65
2023-03-11T03:36:36.844Z,21.55
2023-03-11T03:41:40.877Z,21.05
2023-03-11T03:46:44.082Z,19.35
2023-03-11T03:51:47.857Z,17.88
2023-03-11T03:57:00.131Z,17.15
2023-03-11T04:02:04.686Z,17.55
2023-03-11T04:07:07.847Z,18.92
2023-03-11T04:12:15.595Z,21.25
2023-03-11T04:17:18.951Z,22.05
2023-03-11T04:22:22.315Z,19.63
2023-03-11T04:27:25.040Z,18.58
2023-03-11T04:32:28.532Z,17.75
2023-03-11T04:37:31.280Z,17.40
2023-03-11T04:42:34.112Z,17.52
2023-03-11T04:47:37.307Z,20.35
2023-03-11T04:52:41.274Z,23.05
2023-03-11T04:57:44.385Z,29.98
2023-03-11T05:02:49.226Z,29.90
2023-03-11T05:07:51.932Z,35.47
2023-03-11T05:12:54.828Z,33.00
2023-03-11T05:18:00.943Z,27.70
2023-03-11T05:23:04.788Z,26.55
2023-03-11T05:28:10.092Z,25.13
2023-03-11T05:33:17.735Z,20.40
2023-03-11T05:38:21.382Z,16.20
2023-03-11T05:43:24.604Z,19.45
2023-03-11T05:48:30.398Z,18.75
2023-03-11T05:53:33.300Z,22.13
2023-03-11T05:58:35.997Z,24.90
2023-03-11T06:03:40.039Z,23.13
2023-03-11T06:08:46.189Z,21.95
2023-03-11T06:13:49.179Z,21.17
2023-03-11T06:18:52.419Z,15.85
2023-03-11T06:23:56.436Z,13.30
2023-03-11T06:29:00.905Z,14.02
2023-03-11T06:34:05.550Z,14.88
2023-03-11T06:39:11.716Z,16.35
2023-03-11T06:44:14.573Z,19.13
2023-03-11T06:49:18.043Z,20.98
2023-03-11T06:54:20.967Z,23.63
2023-03-11T06:59:23.772Z,22.70
2023-03-11T07:04:27.936Z,25.17
2023-03-11T07:09:30.753Z,20.95
2023-03-11T07:14:34.060Z,19.77
2023-03-11T07:19:37.345Z,18.30
2023-03-11T07:24:40.984Z,18.20
2023-03-11T07:29:43.647Z,17.48
2023-03-11T07:34:46.378Z,17.50
2023-03-11T07:39:48.952Z,16.77
2023-03-11T07:44:52.053Z,17.20
2023-03-11T07:49:56.948Z,15.55
2023-03-11T07:55:00.034Z,16.65
2023-03-11T08:00:02.913Z,20.13
2023-03-11T08:05:25.217Z,21.20
2023-03-11T08:10:28.032Z,23.33
2023-03-11T08:15:32.113Z,20.88
2023-03-11T08:20:34.930Z,21.98
2023-03-11T08:25:40.145Z,26.35
2023-03-11T08:30:43.145Z,33.35
2023-03-11T08:35:45.903Z,35.55
2023-03-11T08:40:48.883Z,34.85
2023-03-11T08:45:51.477Z,36.35
2023-03-11T08:50:54.875Z,39.08
2023-03-11T08:55:58.499Z,38.58
2023-03-11T09:01:01.387Z,32.40
2023-03-11T09:06:06.777Z,25.70
2023-03-11T09:11:10.654Z,21.75
2023-03-11T09:16:17.226Z,26.02
2023-03-11T09:21:20.312Z,32.22
2023-03-11T09:26:23.127Z,21.05
2023-03-11T09:31:25.768Z,20.67
2023-03-11T09:36:28.509Z,21.92
2023-03-11T09:41:57.396Z,29.80
2023-03-11T09:52:53.384Z,49.33
2023-03-11T09:58:00.187Z,95.30
2023-03-11T10:03:03.924Z,79.22
2023-03-11T10:08:28.343Z,58.50
2023-03-11T10:35:04.763Z,45.78
2023-03-11T10:40:25.213Z,34.97
2023-03-11T10:45:33.559Z,26.13
2023-03-11T10:50:50.117Z,30.45
2023-03-11T10:55:55.271Z,38.20
2023-03-11T11:01:14.706Z,27.65
2023-03-11T11:11:36.726Z,28.40
2023-03-11T11:16:41.063Z,32.20
2023-03-11T11:21:49.248Z,29.85
2023-03-11T11:32:26.316Z,30.27
2023-03-11T11:37:32.294Z,23.20
2023-03-11T11:42:36.181Z,25.90
2023-03-11T11:52:51.587Z,21.40
2023-03-11T11:57:54.294Z,24.13
2023-03-11T12:03:26.187Z,23.85
2023-03-11T12:08:42.974Z,23.10
2023-03-11T12:19:44.872Z,25.80
2023-03-11T12:30:27.455Z,24.55
2023-03-11T12:35:32.957Z,24.83
2023-03-11T12:46:00.368Z,23.60
2023-03-11T12:51:03.519Z,22.42
2023-03-11T12:56:21.945Z,31.08
2023-03-11T13:12:51.854Z,28.17
2023-03-11T13:44:13.971Z,17.38
2023-03-11T13:49:40.606Z,16.08
2023-03-11T13:54:49.312Z,15.77
2023-03-11T13:59:54.134Z,15.55
2023-03-11T14:05:04.801Z,17.02
2023-03-11T14:15:27.524Z,16.38
2023-03-11T14:20:30.507Z,16.27
2023-03-11T14:25:36.496Z,15.40
2023-03-11T14:30:39.164Z,15.93
2023-03-11T14:35:42.094Z,15.63
2023-03-11T14:40:44.781Z,14.73
2023-03-11T14:45:49.223Z,15.25
2023-03-11T14:50:54.114Z,15.55
2023-03-11T14:56:00.402Z,15.50
2023-03-11T15:06:17.887Z,14.48
2023-03-11T15:11:25.365Z,15.52
2023-03-11T15:16:37.544Z,15.13
2023-03-11T15:21:47.190Z,15.85
2023-03-11T15:27:07.949Z,16.75
2023-03-11T15:32:46.846Z,18.52
2023-03-11T15:38:11.100Z,15.95
2023-03-11T15:48:29.073Z,10.90
2023-03-11T15:53:31.872Z,9.52
2023-03-11T15:58:34.592Z,9.27
2023-03-11T16:03:39.218Z,9.73
2023-03-11T16:14:43.022Z,9.60
2023-03-11T16:19:49.226Z,11.07
2023-03-11T16:24:54.072Z,11.82
2023-03-11T16:29:56.910Z,10.73
2023-03-11T16:34:59.634Z,10.30
2023-03-11T16:40:02.543Z,11.32
2023-03-11T16:45:06.888Z,10.27
2023-03-11T16:50:11.591Z,9.93
2023-03-11T16:55:14.338Z,10.40
2023-03-11T17:00:18.314Z,10.50
2023-03-11T17:05:21.725Z,11.68
2023-03-11T17:10:25.581Z,11.57
2023-03-11T17:15:28.434Z,10.50
2023-03-11T17:20:31.754Z,10.13
2023-03-11T17:25:34.517Z,8.57
2023-03-11T17:30:43.204Z,8.93
2023-03-11T17:35:47.210Z,8.15
2023-03-11T17:40:49.871Z,7.88
2023-03-11T17:45:53.991Z,8.43
2023-03-11T17:50:59.780Z,7.97
2023-03-11T17:56:03.578Z,8.10
2023-03-11T18:01:13.561Z,7.68
2023-03-11T18:06:19.289Z,6.93
2023-03-11T18:11:25.274Z,7.47
2023-03-11T18:16:32.124Z,8.73
2023-03-11T18:21:34.852Z,7.40
2023-03-11T18:26:37.821Z,7.38
2023-03-11T18:31:41.575Z,7.80
2023-03-11T18:36:44.282Z,7.47
2023-03-11T18:41:46.889Z,5.82
2023-03-11T18:46:50.803Z,5.80
2023-03-11T18:51:53.434Z,4.95
2023-03-11T18:56:56.346Z,5.18
2023-03-11T19:01:58.919Z,5.10
2023-03-11T19:07:01.538Z,4.30
2023-03-11T19:12:04.350Z,3.75
2023-03-11T19:17:07.000Z,4.22
2023-03-11T19:22:09.632Z,4.28
2023-03-11T19:27:12.380Z,4.38
2023-03-11T19:32:15.020Z,4.38
2023-03-11T19:37:17.626Z,5.03
2023-03-11T19:42:21.119Z,5.45
2023-03-11T19:47:24.181Z,7.45
2023-03-11T19:52:26.981Z,5.93
2023-03-11T19:57:29.763Z,5.05
2023-03-11T20:02:32.444Z,4.40
2023-03-11T20:07:34.989Z,4.63
2023-03-11T20:12:37.625Z,3.63
2023-03-11T20:17:40.220Z,3.53
2023-03-11T20:22:42.760Z,3.17
2023-03-11T20:27:45.397Z,3.85
2023-03-11T20:32:49.092Z,2.70
2023-03-11T20:37:51.865Z,4.03
2023-03-11T20:42:54.709Z,2.95
2023-03-11T20:47:57.500Z,2.92
2023-03-11T20:53:00.024Z,2.80
2023-03-11T20:58:02.817Z,3.17
2023-03-11T21:03:05.576Z,3.38
2023-03-11T21:08:08.328Z,3.25
2023-03-11T21:13:11.014Z,3.88
2023-03-11T21:18:13.941Z,3.75
2023-03-11T21:23:19.020Z,4.03
2023-03-11T21:28:21.666Z,3.13
2023-03-11T21:33:24.569Z,3.30
2023-03-11T21:38:29.088Z,3.30
2023-03-11T21:43:31.925Z,3.58
2023-03-11T21:48:35.133Z,3.83
2023-03-11T21:53:37.857Z,3.42
2023-03-11T21:58:41.098Z,3.03
2023-03-11T22:03:44.170Z,2.92
2023-03-11T22:08:47.551Z,3.20
2023-03-11T22:13:54.219Z,3.28
2023-03-11T22:18:57.792Z,3.10
2023-03-11T22:24:12.011Z,3.45
2023-03-11T22:29:16.848Z,3.35
2023-03-11T22:34:23.082Z,3.42
2023-03-11T22:39:27.723Z,2.35
2023-03-11T22:44:34.397Z,3.40
2023-03-11T22:49:40.688Z,3.58
2023-03-11T22:54:44.777Z,3.65
2023-03-11T22:59:50.006Z,3.75
2023-03-11T23:04:54.038Z,4.10
2023-03-11T23:09:57.720Z,4.07
2023-03-11T23:15:15.693Z,3.23
2023-03-11T23:20:18.393Z,4.60
2023-03-11T23:25:21.156Z,5.40
2023-03-11T23:30:24.125Z,5.50
2023-03-11T23:35:26.802Z,5.95
2023-03-11T23:40:29.535Z,5.72
2023-03-11T23:45:32.089Z,4.53
2023-03-11T23:50:34.622Z,6.78
2023-03-11T23:55:38.396Z,6.15
